KAP167 KHYA-KHPN
Flight info
| Callsign | KAP167 |
|---|---|
| Flight time | 1h 31m |
| Altitude | 12000 |
| Route | PVD V146 BAF NOBBI1 |
| Aircraft | C208/L-SBDFGR/SB2 |
Departure
| Time | 2026-04-30 02:29 |
|---|---|
| Airport | Cape Cod Gateway Airport (KHYA) |
Arrival
| Time | 2026-04-30 04:00 |
|---|---|
| Airport | Westchester County Airport (KHPN) |
| Time | Latitude | Longitude | Altitude | Speed | Heading |
|---|---|---|---|---|---|
| 2026-04-30 01:27 | 41.66945 | -70.29082 | 58 ft | 0 kts | 63° |
| 2026-04-30 02:23 | 41.66929 | -70.29035 | 52 ft | 11 kts | 125° |
| 2026-04-30 02:23 | 41.66901 | -70.28942 | 57 ft | 11 kts | 94° |
| 2026-04-30 02:23 | 41.66903 | -70.28836 | 57 ft | 11 kts | 84° |
| 2026-04-30 02:24 | 41.66936 | -70.28776 | 57 ft | 9 kts | 334° |
| 2026-04-30 02:24 | 41.66984 | -70.28824 | 58 ft | 9 kts | 319° |
| 2026-04-30 02:24 | 41.67031 | -70.28877 | 58 ft | 9 kts | 321° |
| 2026-04-30 02:24 | 41.67080 | -70.28932 | 58 ft | 9 kts | 319° |
| 2026-04-30 02:25 | 41.67130 | -70.28990 | 55 ft | 10 kts | 318° |
| 2026-04-30 02:25 | 41.67182 | -70.29049 | 60 ft | 10 kts | 322° |
| 2026-04-30 02:25 | 41.67236 | -70.29108 | 60 ft | 11 kts | 320° |
| 2026-04-30 02:25 | 41.67307 | -70.29187 | 61 ft | 15 kts | 321° |
| 2026-04-30 02:26 | 41.67394 | -70.29280 | 62 ft | 14 kts | 334° |
| 2026-04-30 02:26 | 41.67420 | -70.29269 | 62 ft | 0 kts | 51° |
| 2026-04-30 02:27 | 41.67461 | -70.29192 | 58 ft | 15 kts | 86° |
| 2026-04-30 02:27 | 41.67385 | -70.29082 | 62 ft | 20 kts | 139° |
| 2026-04-30 02:27 | 41.67363 | -70.29058 | 61 ft | 0 kts | 141° |
| 2026-04-30 02:28 | 41.67356 | -70.29050 | 61 ft | 16 kts | 139° |
| 2026-04-30 02:28 | 41.67048 | -70.28705 | 62 ft | 89 kts | 140° |
| 2026-04-30 02:28 | 41.66555 | -70.28106 | 276 ft | 107 kts | 135° |
| 2026-04-30 02:28 | 41.65945 | -70.27396 | 519 ft | 117 kts | 141° |
| 2026-04-30 02:29 | 41.65306 | -70.26722 | 874 ft | 116 kts | 141° |
| 2026-04-30 02:29 | 41.64688 | -70.26061 | 1245 ft | 111 kts | 141° |
| 2026-04-30 02:29 | 41.64100 | -70.25415 | 1524 ft | 111 kts | 141° |
| 2026-04-30 02:29 | 41.63514 | -70.24761 | 1820 ft | 109 kts | 141° |
| 2026-04-30 02:30 | 41.62934 | -70.24095 | 2076 ft | 111 kts | 141° |
| 2026-04-30 02:30 | 41.62350 | -70.23426 | 2335 ft | 110 kts | 143° |
| 2026-04-30 02:30 | 41.61624 | -70.23325 | 2582 ft | 116 kts | 205° |
| 2026-04-30 02:30 | 41.61242 | -70.24290 | 2846 ft | 128 kts | 257° |
| 2026-04-30 02:31 | 41.61128 | -70.25465 | 3091 ft | 128 kts | 255° |
| 2026-04-30 02:31 | 41.61002 | -70.26648 | 3335 ft | 129 kts | 256° |
| 2026-04-30 02:31 | 41.60880 | -70.27841 | 3577 ft | 130 kts | 256° |
| 2026-04-30 02:31 | 41.60761 | -70.29034 | 3836 ft | 129 kts | 256° |
| 2026-04-30 02:32 | 41.60641 | -70.30227 | 4053 ft | 131 kts | 256° |
| 2026-04-30 02:32 | 41.60763 | -70.31463 | 4275 ft | 137 kts | 279° |
| 2026-04-30 02:32 | 41.60957 | -70.32702 | 4503 ft | 136 kts | 274° |
| 2026-04-30 02:32 | 41.61111 | -70.33950 | 4734 ft | 136 kts | 272° |
| 2026-04-30 02:33 | 41.61254 | -70.35200 | 4960 ft | 136 kts | 272° |
| 2026-04-30 02:33 | 41.61391 | -70.36447 | 5179 ft | 135 kts | 272° |
| 2026-04-30 02:33 | 41.61527 | -70.37693 | 5401 ft | 135 kts | 271° |
| 2026-04-30 02:33 | 41.61660 | -70.38920 | 5615 ft | 136 kts | 271° |
| 2026-04-30 02:34 | 41.61795 | -70.40167 | 5870 ft | 135 kts | 271° |
| 2026-04-30 02:34 | 41.61930 | -70.41411 | 6094 ft | 135 kts | 271° |
| 2026-04-30 02:34 | 41.62064 | -70.42654 | 6306 ft | 135 kts | 271° |
| 2026-04-30 02:34 | 41.62198 | -70.43897 | 6514 ft | 135 kts | 271° |
| 2026-04-30 02:35 | 41.62333 | -70.45141 | 6710 ft | 135 kts | 271° |
| 2026-04-30 02:35 | 41.62467 | -70.46387 | 6902 ft | 135 kts | 271° |
| 2026-04-30 02:35 | 41.62600 | -70.47632 | 7094 ft | 136 kts | 271° |
| 2026-04-30 02:35 | 41.62734 | -70.48878 | 7284 ft | 136 kts | 271° |
| 2026-04-30 02:36 | 41.62868 | -70.50126 | 7472 ft | 136 kts | 271° |
| 2026-04-30 02:36 | 41.63002 | -70.51376 | 7655 ft | 136 kts | 272° |
| 2026-04-30 02:36 | 41.63135 | -70.52625 | 7838 ft | 136 kts | 272° |
| 2026-04-30 02:36 | 41.63269 | -70.53867 | 8016 ft | 136 kts | 272° |
| 2026-04-30 02:37 | 41.63403 | -70.55120 | 8202 ft | 136 kts | 272° |
| 2026-04-30 02:37 | 41.63537 | -70.56374 | 8380 ft | 136 kts | 272° |
| 2026-04-30 02:37 | 41.63671 | -70.57630 | 8560 ft | 137 kts | 272° |
| 2026-04-30 02:37 | 41.63805 | -70.58887 | 8741 ft | 137 kts | 272° |
| 2026-04-30 02:38 | 41.63938 | -70.60150 | 8934 ft | 137 kts | 272° |
| 2026-04-30 02:38 | 41.64072 | -70.61409 | 9164 ft | 137 kts | 272° |
| 2026-04-30 02:38 | 41.64206 | -70.62671 | 9379 ft | 137 kts | 272° |
| 2026-04-30 02:38 | 41.64341 | -70.63940 | 9606 ft | 138 kts | 272° |
| 2026-04-30 02:39 | 41.64476 | -70.65205 | 9817 ft | 138 kts | 272° |
| 2026-04-30 02:39 | 41.64610 | -70.66474 | 10012 ft | 138 kts | 272° |
| 2026-04-30 02:39 | 41.64744 | -70.67747 | 10199 ft | 138 kts | 272° |
| 2026-04-30 02:39 | 41.64877 | -70.69003 | 10389 ft | 138 kts | 272° |
| 2026-04-30 02:40 | 41.65012 | -70.70280 | 10573 ft | 139 kts | 272° |
| 2026-04-30 02:40 | 41.65146 | -70.71557 | 10759 ft | 139 kts | 272° |
| 2026-04-30 02:40 | 41.65281 | -70.72834 | 10953 ft | 139 kts | 272° |
| 2026-04-30 02:40 | 41.65416 | -70.74116 | 11121 ft | 139 kts | 272° |
| 2026-04-30 02:41 | 41.65504 | -70.74964 | 11244 ft | 139 kts | 272° |
| 2026-04-30 02:41 | 41.65639 | -70.76248 | 11435 ft | 139 kts | 272° |
| 2026-04-30 02:41 | 41.65774 | -70.77533 | 11626 ft | 139 kts | 272° |
| 2026-04-30 02:41 | 41.65909 | -70.78820 | 11812 ft | 140 kts | 272° |
| 2026-04-30 02:42 | 41.66044 | -70.80108 | 11999 ft | 140 kts | 272° |
| 2026-04-30 02:42 | 41.66183 | -70.81451 | 12020 ft | 151 kts | 273° |
| 2026-04-30 02:42 | 41.66333 | -70.82880 | 12029 ft | 158 kts | 273° |
| 2026-04-30 02:42 | 41.66490 | -70.84360 | 12028 ft | 163 kts | 273° |
| 2026-04-30 02:43 | 41.66648 | -70.85872 | 12026 ft | 165 kts | 273° |
| 2026-04-30 02:43 | 41.66808 | -70.87401 | 12028 ft | 167 kts | 273° |
| 2026-04-30 02:43 | 41.66968 | -70.88940 | 12028 ft | 168 kts | 273° |
| 2026-04-30 02:43 | 41.67129 | -70.90491 | 12027 ft | 168 kts | 273° |
| 2026-04-30 02:44 | 41.67290 | -70.92044 | 12028 ft | 169 kts | 273° |
| 2026-04-30 02:44 | 41.67451 | -70.93597 | 12027 ft | 169 kts | 273° |
| 2026-04-30 02:44 | 41.67609 | -70.95131 | 12028 ft | 169 kts | 273° |
| 2026-04-30 02:44 | 41.67770 | -70.96690 | 12028 ft | 169 kts | 273° |
| 2026-04-30 02:45 | 41.67930 | -70.98249 | 12025 ft | 170 kts | 273° |
| 2026-04-30 02:45 | 41.68091 | -70.99816 | 12029 ft | 170 kts | 273° |
| 2026-04-30 02:45 | 41.68253 | -71.01389 | 12027 ft | 171 kts | 273° |
| 2026-04-30 02:45 | 41.68416 | -71.02971 | 12029 ft | 171 kts | 273° |
| 2026-04-30 02:46 | 41.68578 | -71.04536 | 12026 ft | 169 kts | 273° |
| 2026-04-30 02:46 | 41.68735 | -71.06081 | 12024 ft | 167 kts | 273° |
| 2026-04-30 02:46 | 41.68889 | -71.07599 | 12023 ft | 166 kts | 273° |
| 2026-04-30 02:46 | 41.69045 | -71.09125 | 12019 ft | 165 kts | 273° |
| 2026-04-30 02:47 | 41.69200 | -71.10646 | 12017 ft | 165 kts | 273° |
| 2026-04-30 02:47 | 41.69354 | -71.12165 | 12014 ft | 164 kts | 273° |
| 2026-04-30 02:47 | 41.69507 | -71.13672 | 12013 ft | 164 kts | 272° |
| 2026-04-30 02:47 | 41.69662 | -71.15193 | 12014 ft | 164 kts | 272° |
| 2026-04-30 02:48 | 41.69814 | -71.16701 | 12013 ft | 163 kts | 272° |
| 2026-04-30 02:48 | 41.69966 | -71.18207 | 12014 ft | 163 kts | 272° |
| 2026-04-30 02:48 | 41.70119 | -71.19714 | 12013 ft | 163 kts | 272° |
| 2026-04-30 02:48 | 41.70270 | -71.21217 | 12014 ft | 163 kts | 272° |
| 2026-04-30 02:49 | 41.70420 | -71.22701 | 12018 ft | 163 kts | 272° |
| 2026-04-30 02:49 | 41.70571 | -71.24204 | 12016 ft | 163 kts | 272° |
| 2026-04-30 02:49 | 41.70722 | -71.25705 | 12017 ft | 162 kts | 272° |
| 2026-04-30 02:49 | 41.70872 | -71.27202 | 12018 ft | 162 kts | 272° |
| 2026-04-30 02:50 | 41.71023 | -71.28696 | 12019 ft | 161 kts | 272° |
| 2026-04-30 02:50 | 41.71171 | -71.30176 | 12015 ft | 159 kts | 272° |
| 2026-04-30 02:50 | 41.71317 | -71.31639 | 12012 ft | 158 kts | 272° |
| 2026-04-30 02:50 | 41.71461 | -71.33093 | 12013 ft | 157 kts | 272° |
| 2026-04-30 02:51 | 41.71605 | -71.34539 | 12011 ft | 156 kts | 272° |
| 2026-04-30 02:51 | 41.71749 | -71.35978 | 12009 ft | 156 kts | 272° |
| 2026-04-30 02:51 | 41.71891 | -71.37414 | 12007 ft | 155 kts | 272° |
| 2026-04-30 02:51 | 41.72033 | -71.38845 | 12008 ft | 155 kts | 272° |
| 2026-04-30 02:52 | 41.72175 | -71.40275 | 12010 ft | 155 kts | 272° |
| 2026-04-30 02:52 | 41.72316 | -71.41705 | 12009 ft | 155 kts | 272° |
| 2026-04-30 02:52 | 41.72581 | -71.43091 | 12018 ft | 160 kts | 290° |
| 2026-04-30 02:52 | 41.73213 | -71.44335 | 12019 ft | 163 kts | 302° |
| 2026-04-30 02:53 | 41.73895 | -71.45547 | 12022 ft | 163 kts | 301° |
| 2026-04-30 02:53 | 41.74576 | -71.46762 | 12022 ft | 163 kts | 301° |
| 2026-04-30 02:53 | 41.75258 | -71.47982 | 12024 ft | 164 kts | 301° |
| 2026-04-30 02:53 | 41.75940 | -71.49199 | 12024 ft | 164 kts | 301° |
| 2026-04-30 02:54 | 41.76625 | -71.50421 | 12022 ft | 164 kts | 301° |
| 2026-04-30 02:54 | 41.77309 | -71.51643 | 12024 ft | 164 kts | 301° |
| 2026-04-30 02:54 | 41.77995 | -71.52868 | 12027 ft | 164 kts | 301° |
| 2026-04-30 02:54 | 41.78679 | -71.54090 | 12023 ft | 164 kts | 301° |
| 2026-04-30 02:55 | 41.79362 | -71.55312 | 12025 ft | 164 kts | 301° |
| 2026-04-30 02:55 | 41.80048 | -71.56537 | 12025 ft | 164 kts | 300° |
| 2026-04-30 02:55 | 41.80726 | -71.57752 | 12014 ft | 165 kts | 301° |
| 2026-04-30 02:55 | 41.81411 | -71.58979 | 12017 ft | 165 kts | 301° |
| 2026-04-30 02:56 | 41.82097 | -71.60207 | 12012 ft | 165 kts | 301° |
| 2026-04-30 02:56 | 41.82786 | -71.61441 | 12012 ft | 165 kts | 301° |
| 2026-04-30 02:56 | 41.83471 | -71.62668 | 12013 ft | 164 kts | 301° |
| 2026-04-30 02:56 | 41.84158 | -71.63900 | 12014 ft | 164 kts | 301° |
| 2026-04-30 02:57 | 41.84843 | -71.65128 | 12013 ft | 164 kts | 301° |
| 2026-04-30 02:57 | 41.85527 | -71.66356 | 12014 ft | 164 kts | 301° |
| 2026-04-30 02:57 | 41.86210 | -71.67583 | 12015 ft | 164 kts | 301° |
| 2026-04-30 02:57 | 41.86893 | -71.68810 | 12013 ft | 164 kts | 301° |
| 2026-04-30 02:58 | 41.87571 | -71.70028 | 12013 ft | 164 kts | 301° |
| 2026-04-30 02:58 | 41.88257 | -71.71259 | 12013 ft | 165 kts | 300° |
| 2026-04-30 02:58 | 41.88941 | -71.72491 | 12017 ft | 164 kts | 300° |
| 2026-04-30 02:58 | 41.89627 | -71.73725 | 12011 ft | 165 kts | 300° |
| 2026-04-30 02:59 | 41.90311 | -71.74955 | 12011 ft | 164 kts | 301° |
| 2026-04-30 02:59 | 41.90995 | -71.76186 | 12009 ft | 164 kts | 300° |
| 2026-04-30 02:59 | 41.91678 | -71.77417 | 12010 ft | 164 kts | 300° |
| 2026-04-30 02:59 | 41.92359 | -71.78645 | 12010 ft | 164 kts | 300° |
| 2026-04-30 03:00 | 41.93044 | -71.79879 | 12010 ft | 164 kts | 300° |
| 2026-04-30 03:00 | 41.93727 | -71.81109 | 12016 ft | 164 kts | 300° |
| 2026-04-30 03:00 | 41.94399 | -71.82322 | 12014 ft | 164 kts | 300° |
| 2026-04-30 03:00 | 41.95082 | -71.83555 | 12012 ft | 164 kts | 300° |
| 2026-04-30 03:01 | 41.95667 | -71.84843 | 12012 ft | 158 kts | 283° |
| 2026-04-30 03:01 | 41.95986 | -71.86248 | 12016 ft | 157 kts | 281° |
| 2026-04-30 03:01 | 41.96332 | -71.87649 | 12018 ft | 158 kts | 282° |
| 2026-04-30 03:01 | 41.96673 | -71.89056 | 12012 ft | 158 kts | 282° |
| 2026-04-30 03:02 | 41.97012 | -71.90462 | 12017 ft | 158 kts | 282° |
| 2026-04-30 03:02 | 41.97351 | -71.91870 | 12020 ft | 158 kts | 282° |
| 2026-04-30 03:02 | 41.97685 | -71.93259 | 12017 ft | 158 kts | 282° |
| 2026-04-30 03:02 | 41.98025 | -71.94673 | 12012 ft | 158 kts | 281° |
| 2026-04-30 03:03 | 41.98363 | -71.96082 | 12017 ft | 159 kts | 281° |
| 2026-04-30 03:03 | 41.99039 | -71.98896 | 12020 ft | 159 kts | 282° |
| 2026-04-30 03:03 | 41.99377 | -72.00309 | 12020 ft | 159 kts | 282° |
| 2026-04-30 03:04 | 41.99717 | -72.01726 | 12022 ft | 159 kts | 281° |
| 2026-04-30 03:04 | 42.00056 | -72.03141 | 12022 ft | 159 kts | 281° |
| 2026-04-30 03:04 | 42.00395 | -72.04560 | 12020 ft | 159 kts | 281° |
| 2026-04-30 03:04 | 42.00733 | -72.05977 | 12018 ft | 159 kts | 282° |
| 2026-04-30 03:05 | 42.01072 | -72.07392 | 12020 ft | 159 kts | 281° |
| 2026-04-30 03:05 | 42.01410 | -72.08809 | 12020 ft | 159 kts | 281° |
| 2026-04-30 03:05 | 42.01750 | -72.10232 | 12018 ft | 160 kts | 281° |
| 2026-04-30 03:05 | 42.02090 | -72.11654 | 12023 ft | 160 kts | 281° |
| 2026-04-30 03:06 | 42.02430 | -72.13081 | 12016 ft | 160 kts | 281° |
| 2026-04-30 03:06 | 42.02769 | -72.14504 | 12020 ft | 160 kts | 281° |
| 2026-04-30 03:06 | 42.03104 | -72.15911 | 12015 ft | 160 kts | 281° |
| 2026-04-30 03:06 | 42.03442 | -72.17331 | 12016 ft | 160 kts | 281° |
| 2026-04-30 03:07 | 42.03780 | -72.18755 | 12014 ft | 160 kts | 281° |
| 2026-04-30 03:07 | 42.04118 | -72.20179 | 12002 ft | 160 kts | 281° |
| 2026-04-30 03:07 | 42.04458 | -72.21608 | 11994 ft | 160 kts | 281° |
| 2026-04-30 03:07 | 42.04797 | -72.23032 | 11994 ft | 160 kts | 281° |
| 2026-04-30 03:08 | 42.05134 | -72.24456 | 11994 ft | 160 kts | 281° |
| 2026-04-30 03:08 | 42.05473 | -72.25884 | 11991 ft | 160 kts | 281° |
| 2026-04-30 03:08 | 42.05811 | -72.27313 | 11989 ft | 160 kts | 281° |
| 2026-04-30 03:08 | 42.06149 | -72.28741 | 11988 ft | 160 kts | 281° |
| 2026-04-30 03:09 | 42.06487 | -72.30170 | 11980 ft | 160 kts | 281° |
| 2026-04-30 03:09 | 42.06826 | -72.31601 | 11984 ft | 161 kts | 281° |
| 2026-04-30 03:09 | 42.07166 | -72.33037 | 11975 ft | 161 kts | 281° |
| 2026-04-30 03:09 | 42.07504 | -72.34469 | 11979 ft | 160 kts | 281° |
| 2026-04-30 03:10 | 42.07837 | -72.35882 | 11977 ft | 160 kts | 281° |
| 2026-04-30 03:10 | 42.08176 | -72.37315 | 11972 ft | 161 kts | 281° |
| 2026-04-30 03:10 | 42.08514 | -72.38752 | 11972 ft | 161 kts | 281° |
| 2026-04-30 03:10 | 42.08853 | -72.40188 | 11977 ft | 161 kts | 281° |
| 2026-04-30 03:11 | 42.09193 | -72.41632 | 11964 ft | 161 kts | 281° |
| 2026-04-30 03:11 | 42.09531 | -72.43068 | 11967 ft | 161 kts | 281° |
| 2026-04-30 03:11 | 42.09869 | -72.44507 | 11967 ft | 161 kts | 281° |
| 2026-04-30 03:11 | 42.10203 | -72.45928 | 11967 ft | 161 kts | 281° |
| 2026-04-30 03:12 | 42.10542 | -72.47368 | 11968 ft | 161 kts | 281° |
| 2026-04-30 03:12 | 42.10880 | -72.48810 | 11967 ft | 162 kts | 281° |
| 2026-04-30 03:12 | 42.11218 | -72.50253 | 11967 ft | 162 kts | 280° |
| 2026-04-30 03:12 | 42.11557 | -72.51699 | 11969 ft | 162 kts | 280° |
| 2026-04-30 03:13 | 42.11895 | -72.53144 | 11968 ft | 161 kts | 280° |
| 2026-04-30 03:13 | 42.12234 | -72.54587 | 11968 ft | 161 kts | 280° |
| 2026-04-30 03:13 | 42.12566 | -72.56011 | 11966 ft | 161 kts | 280° |
| 2026-04-30 03:13 | 42.12902 | -72.57451 | 11965 ft | 161 kts | 280° |
| 2026-04-30 03:14 | 42.13239 | -72.58889 | 11968 ft | 161 kts | 280° |
| 2026-04-30 03:14 | 42.13574 | -72.60329 | 11967 ft | 161 kts | 280° |
| 2026-04-30 03:14 | 42.13911 | -72.61772 | 11986 ft | 162 kts | 280° |
| 2026-04-30 03:14 | 42.14249 | -72.63220 | 11986 ft | 162 kts | 280° |
| 2026-04-30 03:15 | 42.14588 | -72.64674 | 11991 ft | 163 kts | 280° |
| 2026-04-30 03:15 | 42.14926 | -72.66128 | 11991 ft | 163 kts | 280° |
| 2026-04-30 03:15 | 42.15266 | -72.67588 | 11990 ft | 163 kts | 280° |
| 2026-04-30 03:15 | 42.15606 | -72.69049 | 11989 ft | 163 kts | 280° |
| 2026-04-30 03:16 | 42.15914 | -72.70510 | 11987 ft | 160 kts | 271° |
| 2026-04-30 03:16 | 42.15873 | -72.71962 | 11976 ft | 152 kts | 251° |
| 2026-04-30 03:16 | 42.15494 | -72.73258 | 11975 ft | 146 kts | 233° |
| 2026-04-30 03:16 | 42.14970 | -72.74429 | 11977 ft | 146 kts | 234° |
| 2026-04-30 03:17 | 42.14455 | -72.75618 | 11982 ft | 146 kts | 234° |
| 2026-04-30 03:17 | 42.13940 | -72.76797 | 11984 ft | 146 kts | 234° |
| 2026-04-30 03:17 | 42.13422 | -72.77980 | 11981 ft | 146 kts | 234° |
| 2026-04-30 03:17 | 42.12905 | -72.79160 | 11981 ft | 146 kts | 234° |
| 2026-04-30 03:18 | 42.12396 | -72.80323 | 11984 ft | 146 kts | 234° |
| 2026-04-30 03:18 | 42.11881 | -72.81499 | 11985 ft | 145 kts | 234° |
| 2026-04-30 03:18 | 42.11367 | -72.82670 | 11983 ft | 145 kts | 234° |
| 2026-04-30 03:18 | 42.10854 | -72.83842 | 11981 ft | 145 kts | 234° |
| 2026-04-30 03:19 | 42.10340 | -72.85012 | 11983 ft | 144 kts | 234° |
| 2026-04-30 03:19 | 42.09828 | -72.86179 | 11983 ft | 145 kts | 234° |
| 2026-04-30 03:19 | 42.09315 | -72.87348 | 11985 ft | 145 kts | 234° |
| 2026-04-30 03:19 | 42.08803 | -72.88514 | 11985 ft | 145 kts | 234° |
| 2026-04-30 03:20 | 42.08290 | -72.89683 | 11985 ft | 145 kts | 234° |
| 2026-04-30 03:20 | 42.07778 | -72.90848 | 11989 ft | 145 kts | 234° |
| 2026-04-30 03:20 | 42.07263 | -72.92019 | 11987 ft | 145 kts | 234° |
| 2026-04-30 03:20 | 42.06757 | -72.93168 | 11989 ft | 145 kts | 234° |
| 2026-04-30 03:21 | 42.06243 | -72.94339 | 11988 ft | 145 kts | 234° |
| 2026-04-30 03:21 | 42.05726 | -72.95513 | 11989 ft | 145 kts | 234° |
| 2026-04-30 03:21 | 42.05210 | -72.96685 | 11984 ft | 145 kts | 234° |
| 2026-04-30 03:21 | 42.04696 | -72.97851 | 11987 ft | 144 kts | 234° |
| 2026-04-30 03:22 | 42.04191 | -72.98997 | 11988 ft | 144 kts | 234° |
| 2026-04-30 03:22 | 42.03679 | -73.00157 | 11987 ft | 144 kts | 234° |
| 2026-04-30 03:22 | 42.03170 | -73.01313 | 11987 ft | 144 kts | 234° |
| 2026-04-30 03:22 | 42.02659 | -73.02471 | 11988 ft | 144 kts | 234° |
| 2026-04-30 03:23 | 42.02149 | -73.03626 | 11988 ft | 143 kts | 234° |
| 2026-04-30 03:23 | 42.01640 | -73.04779 | 11989 ft | 143 kts | 234° |
| 2026-04-30 03:23 | 42.01130 | -73.05934 | 11991 ft | 143 kts | 234° |
| 2026-04-30 03:23 | 42.00622 | -73.07083 | 11992 ft | 143 kts | 234° |
| 2026-04-30 03:24 | 42.00118 | -73.08222 | 11991 ft | 144 kts | 234° |
| 2026-04-30 03:24 | 41.99610 | -73.09373 | 11992 ft | 143 kts | 234° |
| 2026-04-30 03:24 | 41.99102 | -73.10521 | 11983 ft | 143 kts | 234° |
| 2026-04-30 03:24 | 41.98594 | -73.11669 | 11988 ft | 142 kts | 234° |
| 2026-04-30 03:25 | 41.98088 | -73.12810 | 11988 ft | 142 kts | 234° |
| 2026-04-30 03:25 | 41.97583 | -73.13951 | 11989 ft | 142 kts | 235° |
| 2026-04-30 03:25 | 41.97078 | -73.15090 | 11992 ft | 142 kts | 234° |
| 2026-04-30 03:25 | 41.96572 | -73.16232 | 11991 ft | 142 kts | 234° |
| 2026-04-30 03:26 | 41.96069 | -73.17367 | 11991 ft | 142 kts | 234° |
| 2026-04-30 03:26 | 41.95564 | -73.18507 | 11991 ft | 141 kts | 234° |
| 2026-04-30 03:26 | 41.95067 | -73.19627 | 11989 ft | 141 kts | 234° |
| 2026-04-30 03:26 | 41.94567 | -73.20752 | 11992 ft | 140 kts | 234° |
| 2026-04-30 03:27 | 41.94070 | -73.21873 | 11991 ft | 140 kts | 234° |
| 2026-04-30 03:27 | 41.93572 | -73.22993 | 11992 ft | 139 kts | 234° |
| 2026-04-30 03:27 | 41.93077 | -73.24106 | 11987 ft | 139 kts | 234° |
| 2026-04-30 03:27 | 41.92580 | -73.25222 | 11990 ft | 139 kts | 234° |
| 2026-04-30 03:28 | 41.92251 | -73.25964 | 11995 ft | 139 kts | 234° |
| 2026-04-30 03:28 | 41.91755 | -73.27078 | 11993 ft | 139 kts | 234° |
| 2026-04-30 03:28 | 41.91264 | -73.28184 | 11993 ft | 137 kts | 234° |
| 2026-04-30 03:28 | 41.90616 | -73.29639 | 11990 ft | 136 kts | 234° |
| 2026-04-30 03:29 | 41.90132 | -73.30724 | 11990 ft | 136 kts | 234° |
| 2026-04-30 03:29 | 41.89648 | -73.31811 | 11987 ft | 135 kts | 234° |
| 2026-04-30 03:29 | 41.89320 | -73.32544 | 11986 ft | 136 kts | 234° |
| 2026-04-30 03:29 | 41.88841 | -73.33619 | 11984 ft | 136 kts | 234° |
| 2026-04-30 03:30 | 41.88358 | -73.34704 | 11987 ft | 135 kts | 234° |
| 2026-04-30 03:30 | 41.87711 | -73.36152 | 11986 ft | 135 kts | 234° |
| 2026-04-30 03:30 | 41.87390 | -73.36872 | 11982 ft | 135 kts | 234° |
| 2026-04-30 03:30 | 41.86910 | -73.37945 | 11981 ft | 134 kts | 234° |
| 2026-04-30 03:31 | 41.86432 | -73.39019 | 11979 ft | 134 kts | 234° |
| 2026-04-30 03:31 | 41.85955 | -73.40087 | 11980 ft | 133 kts | 234° |
| 2026-04-30 03:31 | 41.85477 | -73.41156 | 11977 ft | 133 kts | 234° |
| 2026-04-30 03:31 | 41.85003 | -73.42214 | 11978 ft | 134 kts | 234° |
| 2026-04-30 03:32 | 41.84516 | -73.43301 | 11983 ft | 134 kts | 234° |
| 2026-04-30 03:32 | 41.84036 | -73.44375 | 11984 ft | 135 kts | 233° |
| 2026-04-30 03:32 | 41.83554 | -73.45454 | 11985 ft | 135 kts | 233° |
| 2026-04-30 03:32 | 41.83074 | -73.46526 | 11983 ft | 135 kts | 233° |
| 2026-04-30 03:33 | 41.82589 | -73.47606 | 11986 ft | 135 kts | 234° |
| 2026-04-30 03:33 | 41.82106 | -73.48687 | 11985 ft | 135 kts | 233° |
| 2026-04-30 03:33 | 41.81622 | -73.49767 | 11989 ft | 135 kts | 233° |
| 2026-04-30 03:33 | 41.81138 | -73.50846 | 11984 ft | 135 kts | 233° |
| 2026-04-30 03:34 | 41.80661 | -73.51908 | 11985 ft | 134 kts | 233° |
| 2026-04-30 03:34 | 41.80180 | -73.52980 | 11987 ft | 134 kts | 233° |
| 2026-04-30 03:34 | 41.79699 | -73.54053 | 11983 ft | 134 kts | 233° |
| 2026-04-30 03:34 | 41.79217 | -73.55125 | 11984 ft | 134 kts | 233° |
| 2026-04-30 03:35 | 41.78737 | -73.56192 | 11982 ft | 134 kts | 233° |
| 2026-04-30 03:35 | 41.78260 | -73.57257 | 11983 ft | 133 kts | 233° |
| 2026-04-30 03:35 | 41.77782 | -73.58318 | 11983 ft | 133 kts | 233° |
| 2026-04-30 03:35 | 41.77288 | -73.59374 | 11978 ft | 133 kts | 228° |
| 2026-04-30 03:36 | 41.76626 | -73.60212 | 11976 ft | 130 kts | 213° |
| 2026-04-30 03:36 | 41.75826 | -73.60773 | 11974 ft | 130 kts | 203° |
| 2026-04-30 03:36 | 41.75013 | -73.61247 | 11979 ft | 128 kts | 204° |
| 2026-04-30 03:36 | 41.74199 | -73.61733 | 11979 ft | 128 kts | 204° |
| 2026-04-30 03:37 | 41.73383 | -73.62216 | 11981 ft | 128 kts | 204° |
| 2026-04-30 03:37 | 41.72566 | -73.62700 | 11976 ft | 129 kts | 204° |
| 2026-04-30 03:37 | 41.71738 | -73.63191 | 11903 ft | 133 kts | 204° |
| 2026-04-30 03:37 | 41.70867 | -73.63710 | 11730 ft | 140 kts | 204° |
| 2026-04-30 03:38 | 41.69955 | -73.64252 | 11541 ft | 145 kts | 204° |
| 2026-04-30 03:38 | 41.69019 | -73.64808 | 11337 ft | 148 kts | 204° |
| 2026-04-30 03:38 | 41.68073 | -73.65366 | 11141 ft | 148 kts | 204° |
| 2026-04-30 03:38 | 41.67148 | -73.65914 | 10947 ft | 145 kts | 204° |
| 2026-04-30 03:39 | 41.66228 | -73.66457 | 10755 ft | 144 kts | 203° |
| 2026-04-30 03:39 | 41.65314 | -73.66996 | 10564 ft | 143 kts | 203° |
| 2026-04-30 03:39 | 41.64401 | -73.67535 | 10378 ft | 143 kts | 203° |
| 2026-04-30 03:39 | 41.63495 | -73.68070 | 10189 ft | 142 kts | 202° |
| 2026-04-30 03:40 | 41.62585 | -73.68606 | 9998 ft | 143 kts | 202° |
| 2026-04-30 03:40 | 41.61668 | -73.69146 | 9799 ft | 145 kts | 202° |
| 2026-04-30 03:40 | 41.60742 | -73.69693 | 9605 ft | 146 kts | 202° |
| 2026-04-30 03:40 | 41.59800 | -73.70121 | 9409 ft | 145 kts | 191° |
| 2026-04-30 03:41 | 41.58793 | -73.70175 | 9217 ft | 146 kts | 178° |
| 2026-04-30 03:41 | 41.57804 | -73.69867 | 9026 ft | 147 kts | 167° |
| 2026-04-30 03:41 | 41.56825 | -73.69472 | 8837 ft | 147 kts | 169° |
| 2026-04-30 03:41 | 41.55843 | -73.69088 | 8640 ft | 147 kts | 168° |
| 2026-04-30 03:42 | 41.54853 | -73.68697 | 8444 ft | 149 kts | 169° |
| 2026-04-30 03:42 | 41.53856 | -73.68306 | 8246 ft | 148 kts | 168° |
| 2026-04-30 03:42 | 41.52882 | -73.67921 | 8050 ft | 148 kts | 168° |
| 2026-04-30 03:42 | 41.51896 | -73.67533 | 7857 ft | 148 kts | 168° |
| 2026-04-30 03:43 | 41.50911 | -73.67144 | 7660 ft | 148 kts | 169° |
| 2026-04-30 03:43 | 41.49921 | -73.66755 | 7480 ft | 149 kts | 169° |
| 2026-04-30 03:43 | 41.48928 | -73.66366 | 7282 ft | 149 kts | 169° |
| 2026-04-30 03:43 | 41.47940 | -73.65973 | 7089 ft | 147 kts | 169° |
| 2026-04-30 03:44 | 41.46953 | -73.65585 | 6888 ft | 148 kts | 169° |
| 2026-04-30 03:44 | 41.45960 | -73.65198 | 6698 ft | 149 kts | 169° |
| 2026-04-30 03:44 | 41.44960 | -73.65138 | 6474 ft | 145 kts | 201° |
| 2026-04-30 03:44 | 41.44047 | -73.65712 | 6268 ft | 145 kts | 203° |
| 2026-04-30 03:45 | 41.43101 | -73.66195 | 6049 ft | 146 kts | 200° |
| 2026-04-30 03:45 | 41.42172 | -73.66638 | 6006 ft | 137 kts | 200° |
| 2026-04-30 03:45 | 41.41302 | -73.67043 | 5998 ft | 131 kts | 199° |
| 2026-04-30 03:45 | 41.40455 | -73.67434 | 5997 ft | 127 kts | 200° |
| 2026-04-30 03:46 | 41.39625 | -73.67819 | 5991 ft | 127 kts | 200° |
| 2026-04-30 03:46 | 41.38802 | -73.68201 | 5927 ft | 130 kts | 200° |
| 2026-04-30 03:46 | 41.37911 | -73.68618 | 5749 ft | 137 kts | 200° |
| 2026-04-30 03:46 | 41.37004 | -73.69041 | 5567 ft | 140 kts | 199° |
| 2026-04-30 03:47 | 41.36077 | -73.69470 | 5379 ft | 142 kts | 199° |
| 2026-04-30 03:47 | 41.35134 | -73.69907 | 5189 ft | 144 kts | 199° |
| 2026-04-30 03:47 | 41.34184 | -73.70347 | 4993 ft | 144 kts | 200° |
| 2026-04-30 03:47 | 41.33235 | -73.70787 | 4803 ft | 145 kts | 199° |
| 2026-04-30 03:48 | 41.32283 | -73.71228 | 4603 ft | 145 kts | 199° |
| 2026-04-30 03:48 | 41.31336 | -73.71666 | 4410 ft | 143 kts | 199° |
| 2026-04-30 03:48 | 41.30430 | -73.72221 | 4223 ft | 143 kts | 208° |
| 2026-04-30 03:48 | 41.29711 | -73.73117 | 4043 ft | 146 kts | 229° |
| 2026-04-30 03:49 | 41.29103 | -73.74217 | 3785 ft | 150 kts | 229° |
| 2026-04-30 03:49 | 41.28465 | -73.75344 | 3511 ft | 154 kts | 229° |
| 2026-04-30 03:49 | 41.27829 | -73.76487 | 3229 ft | 153 kts | 229° |
| 2026-04-30 03:49 | 41.27198 | -73.77616 | 2997 ft | 150 kts | 229° |
| 2026-04-30 03:50 | 41.26605 | -73.78686 | 2984 ft | 137 kts | 229° |
| 2026-04-30 03:50 | 41.26060 | -73.79668 | 2982 ft | 128 kts | 229° |
| 2026-04-30 03:50 | 41.25557 | -73.80596 | 2989 ft | 121 kts | 228° |
| 2026-04-30 03:50 | 41.25080 | -73.81494 | 2985 ft | 116 kts | 228° |
| 2026-04-30 03:51 | 41.24627 | -73.82359 | 2986 ft | 112 kts | 229° |
| 2026-04-30 03:51 | 41.24189 | -73.83190 | 2987 ft | 112 kts | 228° |
| 2026-04-30 03:51 | 41.23728 | -73.84057 | 2999 ft | 117 kts | 228° |
| 2026-04-30 03:51 | 41.23118 | -73.84706 | 2994 ft | 114 kts | 189° |
| 2026-04-30 03:52 | 41.22406 | -73.84286 | 2991 ft | 124 kts | 132° |
| 2026-04-30 03:52 | 41.22089 | -73.83190 | 2995 ft | 130 kts | 117° |
| 2026-04-30 03:52 | 41.21764 | -73.82018 | 2836 ft | 140 kts | 118° |
| 2026-04-30 03:52 | 41.21431 | -73.80826 | 2726 ft | 131 kts | 118° |
| 2026-04-30 03:53 | 41.21150 | -73.79747 | 2666 ft | 112 kts | 117° |
| 2026-04-30 03:53 | 41.20934 | -73.78833 | 2596 ft | 98 kts | 117° |
| 2026-04-30 03:53 | 41.20687 | -73.78032 | 2458 ft | 88 kts | 143° |
| 2026-04-30 03:53 | 41.20163 | -73.77718 | 2325 ft | 81 kts | 171° |
| 2026-04-30 03:54 | 41.19613 | -73.77572 | 2212 ft | 80 kts | 173° |
| 2026-04-30 03:54 | 41.19070 | -73.77430 | 2093 ft | 80 kts | 175° |
| 2026-04-30 03:54 | 41.18533 | -73.77438 | 1983 ft | 70 kts | 182° |
| 2026-04-30 03:54 | 41.18058 | -73.77454 | 1982 ft | 71 kts | 184° |
| 2026-04-30 03:55 | 41.17550 | -73.77490 | 2006 ft | 77 kts | 184° |
| 2026-04-30 03:55 | 41.17014 | -73.77668 | 2010 ft | 82 kts | 194° |
| 2026-04-30 03:55 | 41.16449 | -73.77799 | 2011 ft | 84 kts | 181° |
| 2026-04-30 03:55 | 41.15894 | -73.77548 | 2010 ft | 86 kts | 157° |
| 2026-04-30 03:56 | 41.15354 | -73.77212 | 2008 ft | 85 kts | 159° |
| 2026-04-30 03:56 | 41.14833 | -73.76852 | 2004 ft | 83 kts | 157° |
| 2026-04-30 03:56 | 41.14324 | -73.76484 | 1997 ft | 83 kts | 156° |
| 2026-04-30 03:56 | 41.13815 | -73.76109 | 1955 ft | 79 kts | 156° |
| 2026-04-30 03:57 | 41.13368 | -73.75773 | 1845 ft | 70 kts | 156° |
| 2026-04-30 03:57 | 41.12956 | -73.75464 | 1745 ft | 69 kts | 156° |
| 2026-04-30 03:57 | 41.12527 | -73.75134 | 1645 ft | 74 kts | 155° |
| 2026-04-30 03:57 | 41.12081 | -73.74795 | 1541 ft | 73 kts | 156° |
| 2026-04-30 03:58 | 41.11633 | -73.74452 | 1433 ft | 76 kts | 155° |
| 2026-04-30 03:58 | 41.11166 | -73.74098 | 1313 ft | 77 kts | 154° |
| 2026-04-30 03:58 | 41.10706 | -73.73747 | 1197 ft | 75 kts | 152° |
| 2026-04-30 03:58 | 41.10243 | -73.73390 | 1085 ft | 78 kts | 153° |
| 2026-04-30 03:59 | 41.09770 | -73.73025 | 979 ft | 81 kts | 150° |
| 2026-04-30 03:59 | 41.09267 | -73.72644 | 853 ft | 84 kts | 151° |
| 2026-04-30 03:59 | 41.08764 | -73.72258 | 739 ft | 85 kts | 150° |
| 2026-04-30 03:59 | 41.08242 | -73.71859 | 621 ft | 88 kts | 149° |
| 2026-04-30 04:00 | 41.07724 | -73.71430 | 519 ft | 86 kts | 148° |
| 2026-04-30 04:00 | 41.07244 | -73.71092 | 418 ft | 68 kts | 153° |
| 2026-04-30 04:00 | 41.06993 | -73.70898 | 418 ft | 31 kts | 148° |
| 2026-04-30 04:00 | 41.06892 | -73.70751 | 415 ft | 14 kts | 34° |
| 2026-04-30 04:01 | 41.06950 | -73.70735 | 416 ft | 0 kts | 20° |
| 2026-04-30 04:01 | 41.06977 | -73.70708 | 406 ft | 11 kts | 63° |
| 2026-04-30 04:02 | 41.06936 | -73.70644 | 417 ft | 11 kts | 149° |
| 2026-04-30 04:02 | 41.06850 | -73.70574 | 419 ft | 16 kts | 149° |
| 2026-04-30 04:02 | 41.06755 | -73.70502 | 419 ft | 15 kts | 152° |
| 2026-04-30 04:02 | 41.06671 | -73.70437 | 414 ft | 13 kts | 150° |
| 2026-04-30 04:03 | 41.06646 | -73.70339 | 419 ft | 8 kts | 80° |
| 2026-04-30 04:03 | 41.06658 | -73.70327 | 411 ft | 0 kts | 24° |